Time;durP1;ratioP1;P1;durP2;ratioP2;P2;SDS_P1;SDS_P2;PMS_P1;PMS_P2;Temp;Humidity;BMP_temperature;BMP_pressure;BME280_temperature;BME280_humidity;BME280_pressure;Samples;Min_cycle;Max_cycle;Signal;HPM_P1;HPM_P2
2022/03/03 00:02:08;;;;;;;13.85;10.18;;;4.30;53.90;;;;;;5011257;28;20410;-48
2022/03/03 00:04:35;;;;;;;18.77;9.73;;;4.20;53.80;;;;;;5002089;28;20081;-47
2022/03/03 00:07:02;;;;;;;12.82;9.75;;;4.20;53.90;;;;;;4993552;28;20046;-47
2022/03/03 00:09:29;;;;;;;14.43;9.93;;;4.20;53.90;;;;;;5003131;28;20514;-46
2022/03/03 00:11:56;;;;;;;14.32;9.68;;;4.20;54.00;;;;;;4990622;28;20047;-44
2022/03/03 00:14:22;;;;;;;14.80;10.50;;;4.10;54.00;;;;;;4991066;28;20049;-47
2022/03/03 00:16:49;;;;;;;15.63;10.40;;;4.10;54.00;;;;;;4990237;28;20047;-46
2022/03/03 00:19:16;;;;;;;17.10;10.63;;;4.10;54.00;;;;;;4992657;28;20613;-45
2022/03/03 00:21:43;;;;;;;14.18;9.90;;;4.10;54.10;;;;;;4996985;28;20066;-45
2022/03/03 00:24:10;;;;;;;16.77;11.07;;;4.00;54.00;;;;;;4996720;28;20038;-46
2022/03/03 00:26:36;;;;;;;13.85;10.77;;;4.00;54.10;;;;;;4996220;28;20038;-45
2022/03/03 00:29:03;;;;;;;16.02;10.55;;;4.00;54.10;;;;;;4999745;28;20053;-47
2022/03/03 00:31:30;;;;;;;17.92;11.00;;;4.00;54.20;;;;;;4990988;28;20049;-49
2022/03/03 00:33:57;;;;;;;15.35;9.82;;;3.90;54.20;;;;;;4997812;28;20718;-47
2022/03/03 00:36:24;;;;;;;14.13;10.63;;;4.00;54.30;;;;;;4991454;28;20093;-46
2022/03/03 00:38:51;;;;;;;14.68;10.38;;;3.90;54.30;;;;;;4992322;28;20449;-46
2022/03/03 00:41:18;;;;;;;15.15;10.70;;;3.90;54.30;;;;;;4991279;28;20066;-47
2022/03/03 00:43:45;;;;;;;15.23;10.60;;;3.90;54.40;;;;;;4991392;28;20070;-46
2022/03/03 00:46:13;;;;;;;16.08;11.00;;;3.80;54.40;;;;;;4989243;28;20093;-46
2022/03/03 00:48:39;;;;;;;14.65;11.38;;;3.80;54.40;;;;;;4992028;28;20121;-50
2022/03/03 00:51:07;;;;;;;15.13;9.93;;;3.80;54.50;;;;;;4989506;28;20046;-48
2022/03/03 00:53:35;;;;;;;14.65;9.93;;;3.80;54.50;;;;;;5008909;28;20042;-47
2022/03/03 00:56:03;;;;;;;18.15;11.35;;;3.80;54.60;;;;;;5005605;28;20121;-45
2022/03/03 00:58:30;;;;;;;17.45;10.05;;;3.80;54.60;;;;;;5010235;28;20489;-45
2022/03/03 01:00:57;;;;;;;14.90;10.20;;;3.80;54.60;;;;;;4996083;28;20034;-45
2022/03/03 01:03:26;;;;;;;17.27;11.55;;;3.70;54.60;;;;;;5010364;28;20034;-47
2022/03/03 01:05:53;;;;;;;13.05;10.02;;;3.70;54.60;;;;;;5004245;28;20073;-47
2022/03/03 01:08:20;;;;;;;16.10;10.63;;;3.70;54.70;;;;;;5003774;28;20707;-45
2022/03/03 01:10:46;;;;;;;15.52;10.45;;;3.70;54.70;;;;;;4994814;28;20030;-46
2022/03/03 01:13:13;;;;;;;18.58;10.82;;;3.70;54.80;;;;;;5010359;28;20046;-49
2022/03/03 01:15:40;;;;;;;15.43;10.85;;;3.60;54.70;;;;;;4994833;28;20042;-45
2022/03/03 01:18:07;;;;;;;14.40;9.57;;;3.60;54.80;;;;;;4991410;28;20071;-46
2022/03/03 01:20:34;;;;;;;15.55;9.93;;;3.60;54.80;;;;;;4997558;28;20092;-45
2022/03/03 01:23:00;;;;;;;16.92;10.50;;;3.60;54.90;;;;;;5005294;28;20097;-47
2022/03/03 01:25:27;;;;;;;13.05;9.95;;;3.60;54.90;;;;;;5007785;28;20046;-47
2022/03/03 01:27:54;;;;;;;15.70;10.35;;;3.50;54.80;;;;;;5010223;28;20088;-47
2022/03/03 01:30:21;;;;;;;15.45;10.80;;;3.50;54.90;;;;;;5007044;28;20042;-45
2022/03/03 01:32:47;;;;;;;13.82;9.77;;;3.50;54.90;;;;;;5002277;28;20038;-46
2022/03/03 01:35:14;;;;;;;19.33;11.63;;;3.50;55.00;;;;;;5010421;28;20030;-47
2022/03/03 01:37:41;;;;;;;15.95;10.45;;;3.50;55.00;;;;;;4999232;28;20100;-46
2022/03/03 01:40:09;;;;;;;16.52;10.90;;;3.50;55.00;;;;;;5009203;28;20073;-48
2022/03/03 01:42:35;;;;;;;15.63;10.43;;;3.50;55.00;;;;;;5000914;28;20178;-49
2022/03/03 01:45:03;;;;;;;17.52;10.93;;;3.50;55.00;;;;;;5011330;28;20100;-47
2022/03/03 01:47:31;;;;;;;15.60;10.82;;;3.50;55.10;;;;;;4998847;28;20039;-47
2022/03/03 01:49:58;;;;;;;14.27;10.35;;;3.40;55.10;;;;;;5006095;28;20044;-50
2022/03/03 01:52:25;;;;;;;16.63;11.10;;;3.40;55.20;;;;;;5006598;28;20103;-45
2022/03/03 01:54:52;;;;;;;15.90;9.90;;;3.40;55.30;;;;;;5005325;28;20556;-46
2022/03/03 01:57:21;;;;;;;13.32;9.82;;;3.40;55.30;;;;;;4999164;28;20052;-49
2022/03/03 01:59:48;;;;;;;14.40;10.32;;;3.40;55.30;;;;;;4992200;28;20093;-47
2022/03/03 02:02:15;;;;;;;17.40;11.57;;;3.30;55.30;;;;;;5004907;28;20046;-46
2022/03/03 02:04:42;;;;;;;12.95;10.02;;;3.30;55.20;;;;;;5010637;28;20398;-46
2022/03/03 02:07:10;;;;;;;16.08;10.13;;;3.30;55.30;;;;;;4999521;28;20076;-46
2022/03/03 02:09:39;;;;;;;14.05;9.75;;;3.30;55.30;;;;;;4999415;28;20088;-46
2022/03/03 02:12:06;;;;;;;14.02;10.10;;;3.30;55.30;;;;;;4990061;28;20112;-50
2022/03/03 02:14:48;;;;;;;16.67;9.80;;;3.30;55.20;;;;;;4990484;28;20042;-45
2022/03/03 02:17:15;;;;;;;15.48;10.15;;;3.20;55.90;;;;;;5001498;28;20045;-48
2022/03/03 02:19:42;;;;;;;13.00;9.88;;;3.20;55.20;;;;;;5002518;28;20043;-48
2022/03/03 02:22:09;;;;;;;14.75;9.35;;;3.20;55.30;;;;;;5009729;28;20053;-47
2022/03/03 02:24:37;;;;;;;14.10;10.40;;;3.20;55.40;;;;;;5005610;28;20065;-46
2022/03/03 02:27:04;;;;;;;15.77;10.43;;;3.20;55.60;;;;;;5007871;28;20037;-49
2022/03/03 02:29:32;;;;;;;14.98;10.15;;;3.10;55.60;;;;;;4995252;28;20047;-50
2022/03/03 02:32:00;;;;;;;15.02;10.40;;;3.10;55.60;;;;;;4987464;28;20034;-45
2022/03/03 02:34:26;;;;;;;19.42;11.32;;;3.10;55.70;;;;;;5000389;28;20070;-45
2022/03/03 02:36:53;;;;;;;17.73;10.73;;;3.10;55.70;;;;;;5008792;28;20054;-46
2022/03/03 02:39:20;;;;;;;18.85;10.23;;;3.10;55.70;;;;;;4990544;28;20130;-45
2022/03/03 02:41:47;;;;;;;18.45;11.45;;;3.10;55.60;;;;;;4988342;28;20046;-47
2022/03/03 02:44:13;;;;;;;14.40;10.32;;;3.10;55.60;;;;;;4991370;28;20096;-47
2022/03/03 02:46:40;;;;;;;14.35;10.05;;;3.00;55.60;;;;;;5000171;28;20065;-45
2022/03/03 02:49:08;;;;;;;14.00;11.02;;;3.00;55.60;;;;;;5009363;28;20042;-46
2022/03/03 02:51:36;;;;;;;16.08;10.15;;;3.00;55.60;;;;;;5008854;28;20046;-49
2022/03/03 02:54:03;;;;;;;14.27;9.60;;;3.00;55.60;;;;;;4992899;28;20046;-46
2022/03/03 02:56:30;;;;;;;17.70;11.57;;;3.00;55.70;;;;;;5007972;28;20061;-48
2022/03/03 02:58:57;;;;;;;16.63;10.30;;;3.00;55.80;;;;;;5002213;28;20042;-46
2022/03/03 03:01:24;;;;;;;15.73;9.93;;;2.90;55.70;;;;;;5008651;28;20038;-47
2022/03/03 03:03:51;;;;;;;14.70;10.38;;;2.90;55.70;;;;;;5001433;28;20092;-45
2022/03/03 03:06:20;;;;;;;19.88;10.13;;;2.90;55.70;;;;;;5000514;28;20038;-45
2022/03/03 03:08:47;;;;;;;17.00;10.45;;;2.90;55.70;;;;;;4997891;28;20117;-47
2022/03/03 03:11:13;;;;;;;15.00;9.75;;;2.90;55.70;;;;;;4988193;28;20042;-47
2022/03/03 03:13:40;;;;;;;15.32;10.40;;;2.80;55.60;;;;;;5006307;28;20670;-44
2022/03/03 03:16:08;;;;;;;15.07;10.43;;;2.80;55.70;;;;;;4999710;28;20514;-46
2022/03/03 03:18:35;;;;;;;15.50;10.10;;;2.80;55.80;;;;;;5009203;28;20050;-46
2022/03/03 03:21:02;;;;;;;19.48;10.73;;;2.80;55.80;;;;;;5000309;28;20153;-50
2022/03/03 03:23:29;;;;;;;14.63;11.15;;;2.70;55.80;;;;;;5002249;28;20125;-47
2022/03/03 03:25:56;;;;;;;13.30;9.88;;;2.70;55.80;;;;;;5021480;23;20100;-50
2022/03/03 03:28:24;;;;;;;14.27;9.65;;;2.80;56.00;;;;;;5012723;28;20079;-49
2022/03/03 03:30:51;;;;;;;15.10;10.65;;;2.70;55.90;;;;;;5016585;28;20038;-51
2022/03/03 03:33:18;;;;;;;15.45;10.80;;;2.70;55.90;;;;;;5028332;28;20041;-48
2022/03/03 03:35:45;;;;;;;13.55;10.10;;;2.70;55.90;;;;;;5011615;28;20046;-48
2022/03/03 03:38:14;;;;;;;17.05;10.77;;;2.60;55.90;;;;;;4997774;28;20077;-48
2022/03/03 03:40:41;;;;;;;15.75;10.63;;;2.60;56.00;;;;;;4998246;28;20046;-48
2022/03/03 03:43:08;;;;;;;16.23;10.48;;;2.60;56.00;;;;;;5004295;28;20065;-48
2022/03/03 03:45:35;;;;;;;16.67;10.63;;;2.60;56.10;;;;;;5011154;28;20052;-49
2022/03/03 03:48:03;;;;;;;15.55;11.30;;;2.60;56.20;;;;;;4992563;28;20084;-48
2022/03/03 03:50:30;;;;;;;14.80;9.70;;;2.60;56.20;;;;;;4991848;28;20050;-51
2022/03/03 03:52:57;;;;;;;15.00;10.00;;;2.60;56.20;;;;;;5000439;28;20034;-50
2022/03/03 03:55:23;;;;;;;16.67;10.13;;;2.50;56.20;;;;;;4994136;28;20034;-50
2022/03/03 03:57:50;;;;;;;15.07;10.13;;;2.50;56.20;;;;;;5000387;28;20046;-49
2022/03/03 04:00:17;;;;;;;15.50;10.75;;;2.50;56.30;;;;;;4993850;28;20061;-49
2022/03/03 04:02:45;;;;;;;15.88;11.30;;;2.50;56.30;;;;;;4992802;28;20050;-48
2022/03/03 04:05:13;;;;;;;13.57;9.00;;;2.50;56.30;;;;;;4996269;28;20069;-49
2022/03/03 04:07:41;;;;;;;17.10;10.48;;;2.50;56.30;;;;;;4997022;28;20717;-48
2022/03/03 04:10:08;;;;;;;15.95;10.65;;;2.40;56.60;;;;;;4992174;28;20046;-48
2022/03/03 04:12:38;;;;;;;14.60;9.75;;;2.40;56.30;;;;;;5001487;28;20038;-48
2022/03/03 04:15:05;;;;;;;16.52;10.50;;;2.40;56.30;;;;;;5008211;28;20100;-50
2022/03/03 04:17:32;;;;;;;15.13;10.25;;;2.40;56.30;;;;;;4998434;28;20052;-48
2022/03/03 04:20:05;;;;;;;14.70;10.20;;;2.40;56.40;;;;;;5002343;28;20049;-47
2022/03/03 04:22:32;;;;;;;17.30;11.25;;;2.40;56.40;;;;;;5005408;28;20038;-49
2022/03/03 04:24:59;;;;;;;16.88;10.23;;;2.40;56.40;;;;;;5005976;28;20100;-48
2022/03/03 04:27:27;;;;;;;14.52;9.82;;;2.30;56.50;;;;;;4991501;28;20077;-48
2022/03/03 04:29:54;;;;;;;13.63;9.20;;;2.30;56.50;;;;;;5004473;28;20627;-48
2022/03/03 04:32:20;;;;;;;15.25;9.88;;;2.30;56.40;;;;;;5007067;28;20046;-49
2022/03/03 04:34:47;;;;;;;12.70;9.50;;;2.30;56.40;;;;;;5009376;28;20692;-48
2022/03/03 04:37:14;;;;;;;15.75;10.73;;;2.30;56.50;;;;;;4975819;28;20047;-47
2022/03/03 04:39:41;;;;;;;14.23;9.82;;;2.30;56.50;;;;;;5010337;28;20108;-48
2022/03/03 04:42:08;;;;;;;15.35;10.00;;;2.30;56.50;;;;;;5010630;28;20108;-47
2022/03/03 04:44:34;;;;;;;14.90;10.02;;;2.20;56.50;;;;;;4981654;28;20121;-48
2022/03/03 04:47:01;;;;;;;16.02;10.05;;;2.20;56.50;;;;;;4993721;28;20045;-46
2022/03/03 04:49:28;;;;;;;14.55;9.93;;;2.20;56.50;;;;;;4993766;28;20039;-48
2022/03/03 04:51:55;;;;;;;13.60;10.13;;;2.20;56.40;;;;;;5002234;28;20042;-47
2022/03/03 04:54:22;;;;;;;14.40;10.80;;;2.20;56.50;;;;;;5007305;28;20149;-50
2022/03/03 04:56:52;;;;;;;14.35;10.40;;;2.20;56.60;;;;;;4996180;28;20510;-49
2022/03/03 04:59:19;;;;;;;15.32;8.82;;;2.20;56.70;;;;;;5000622;28;20100;-47
2022/03/03 05:01:45;;;;;;;15.48;10.90;;;2.10;56.50;;;;;;5003856;28;20116;-47
2022/03/03 05:04:12;;;;;;;15.00;10.60;;;2.10;56.60;;;;;;4985400;28;20109;-50
2022/03/03 05:06:47;;;;;;;13.77;9.80;;;2.10;56.60;;;;;;4996040;28;20048;-47
2022/03/03 05:09:15;;;;;;;16.70;11.50;;;2.10;56.60;;;;;;4996607;28;20042;-48
2022/03/03 05:11:42;;;;;;;14.57;8.98;;;2.10;56.60;;;;;;4990873;28;20418;-48
2022/03/03 05:14:09;;;;;;;15.73;10.02;;;2.10;56.60;;;;;;4999734;28;20498;-49
2022/03/03 05:16:36;;;;;;;14.07;9.55;;;2.10;56.60;;;;;;5001752;28;20073;-48
2022/03/03 05:19:02;;;;;;;13.98;9.38;;;2.00;56.60;;;;;;5011628;28;20045;-48
2022/03/03 05:21:31;;;;;;;16.42;11.00;;;2.00;56.60;;;;;;4998527;28;20577;-48
2022/03/03 05:23:59;;;;;;;18.20;10.00;;;2.00;56.60;;;;;;4995382;28;20038;-47
2022/03/03 05:26:26;;;;;;;15.55;10.05;;;2.00;56.60;;;;;;5002034;28;20050;-50
2022/03/03 05:28:53;;;;;;;16.48;10.60;;;2.00;56.70;;;;;;4996030;28;20046;-48
2022/03/03 05:31:20;;;;;;;16.08;10.10;;;2.00;56.70;;;;;;4987157;28;20051;-48
2022/03/03 05:33:48;;;;;;;14.13;10.00;;;1.90;56.70;;;;;;4999853;28;20104;-51
2022/03/03 05:36:14;;;;;;;13.07;9.48;;;1.90;56.70;;;;;;4997839;28;20101;-49
2022/03/03 05:38:41;;;;;;;15.85;9.73;;;1.90;56.70;;;;;;5004010;28;20045;-50
2022/03/03 05:41:08;;;;;;;14.90;10.02;;;1.90;56.70;;;;;;4993799;28;20100;-52
2022/03/03 05:43:35;;;;;;;13.50;9.82;;;1.90;56.70;;;;;;4981126;28;20502;-49
2022/03/03 05:46:03;;;;;;;15.07;9.35;;;1.90;56.70;;;;;;5003628;28;20042;-49
2022/03/03 05:48:30;;;;;;;13.70;10.45;;;1.80;56.60;;;;;;4999447;28;20045;-47
2022/03/03 05:50:57;;;;;;;15.93;9.23;;;1.80;56.70;;;;;;4997844;28;20488;-49
2022/03/03 05:53:25;;;;;;;15.20;10.13;;;1.80;56.60;;;;;;4998014;28;20094;-51
2022/03/03 05:56:01;;;;;;;17.40;11.02;;;1.80;56.70;;;;;;4999036;28;20092;-52
2022/03/03 05:58:36;;;;;;;14.57;9.07;;;1.80;56.90;;;;;;4984114;28;20523;-52
2022/03/03 06:01:03;;;;;;;15.93;9.82;;;1.80;56.80;;;;;;4998426;28;20050;-49
2022/03/03 06:03:33;;;;;;;16.02;10.10;;;1.70;56.70;;;;;;4999919;28;20042;-49
2022/03/03 06:06:25;;;;;;;14.90;8.57;;;1.70;56.80;;;;;;4996872;28;20512;-51
2022/03/03 06:09:15;;;;;;;15.10;9.07;;;1.70;57.70;;;;;;4987613;28;20034;-52
2022/03/03 06:11:47;;;;;;;15.68;9.93;;;1.70;57.70;;;;;;4989707;28;20046;-51
2022/03/03 06:14:23;;;;;;;12.95;8.75;;;1.70;56.90;;;;;;4998373;28;20128;-52
2022/03/03 06:16:50;;;;;;;14.20;10.15;;;1.70;57.10;;;;;;5000905;28;20096;-52
2022/03/03 06:19:20;;;;;;;16.95;9.30;;;1.70;57.10;;;;;;5000673;28;20073;-51
2022/03/03 06:21:47;;;;;;;15.85;10.80;;;1.70;57.10;;;;;;4987850;28;20092;-51
2022/03/03 06:24:13;;;;;;;14.50;9.77;;;1.70;57.10;;;;;;4989332;28;20050;-54
2022/03/03 06:26:40;;;;;;;15.43;9.73;;;1.70;57.10;;;;;;4988960;28;20065;-54
2022/03/03 06:29:09;;;;;;;14.05;9.07;;;1.70;57.20;;;;;;4987560;28;20046;-50
2022/03/03 06:31:36;;;;;;;20.13;9.93;;;1.60;57.20;;;;;;4980019;28;20095;-50
2022/03/03 06:34:03;;;;;;;18.23;11.18;;;1.60;57.10;;;;;;4984196;28;20050;-52
2022/03/03 06:36:29;;;;;;;16.10;11.13;;;1.60;57.10;;;;;;5000031;28;20045;-51
2022/03/03 06:38:56;;;;;;;17.95;10.15;;;1.60;57.10;;;;;;4990533;28;20038;-51
2022/03/03 06:41:24;;;;;;;21.23;11.75;;;1.60;57.10;;;;;;5001381;28;20452;-51
2022/03/03 06:43:51;;;;;;;16.90;10.60;;;1.60;57.10;;;;;;5004239;28;20050;-54
2022/03/03 06:46:18;;;;;;;17.73;11.63;;;1.60;57.20;;;;;;4985197;28;20133;-50
2022/03/03 06:48:45;;;;;;;14.95;10.00;;;1.60;57.20;;;;;;4992333;28;20748;-51
2022/03/03 06:51:17;;;;;;;16.70;10.85;;;1.60;57.30;;;;;;5000823;28;20069;-53
2022/03/03 06:53:46;;;;;;;16.40;10.73;;;1.60;57.30;;;;;;5008971;28;20046;-54
2022/03/03 06:56:13;;;;;;;15.00;10.45;;;1.60;57.30;;;;;;4988538;28;20140;-51
2022/03/03 06:58:40;;;;;;;15.13;9.65;;;1.60;57.30;;;;;;4993877;28;20042;-51
2022/03/03 07:01:10;;;;;;;14.43;10.30;;;1.60;57.30;;;;;;4996819;28;20070;-53
2022/03/03 07:03:38;;;;;;;18.85;10.88;;;1.60;57.50;;;;;;4989258;28;20086;-53
2022/03/03 07:06:05;;;;;;;17.35;10.55;;;1.60;57.50;;;;;;4966772;28;20035;-50
2022/03/03 07:08:33;;;;;;;17.90;11.65;;;1.70;57.50;;;;;;4991663;28;20632;-50
2022/03/03 07:11:00;;;;;;;17.75;9.95;;;1.60;57.50;;;;;;4988801;28;20046;-49
2022/03/03 07:13:27;;;;;;;19.15;10.70;;;1.70;57.70;;;;;;4991033;28;20038;-50
2022/03/03 07:16:23;;;;;;;15.15;10.02;;;1.70;57.70;;;;;;4990972;28;20124;-50
2022/03/03 07:18:54;;;;;;;15.73;8.82;;;1.70;58.70;;;;;;4988916;28;20064;-53
2022/03/03 07:21:30;;;;;;;10.43;7.03;;;1.70;57.70;;;;;;4981250;28;20042;-50
2022/03/03 07:24:23;;;;;;;15.98;9.88;;;1.70;57.90;;;;;;4987318;28;20093;-52
2022/03/03 07:26:53;;;;;;;15.15;9.20;;;1.80;58.10;;;;;;5003171;28;20046;-52
2022/03/03 07:29:24;;;;;;;15.95;10.10;;;1.80;57.70;;;;;;4998584;28;20034;-52
2022/03/03 07:31:56;;;;;;;18.97;11.03;;;1.80;57.90;;;;;;4994368;28;20438;-50
2022/03/03 07:34:31;;;;;;;17.88;11.63;;;1.80;58.10;;;;;;4981754;28;20381;-53
2022/03/03 07:37:03;;;;;;;15.15;10.65;;;1.80;58.30;;;;;;4992171;28;20037;-50
2022/03/03 07:39:38;;;;;;;16.67;9.88;;;1.90;58.30;;;;;;5005690;28;20054;-52
2022/03/03 07:42:06;;;;;;;18.73;11.63;;;1.90;58.50;;;;;;4994669;28;20092;-53
2022/03/03 07:44:34;;;;;;;15.88;10.45;;;1.90;58.40;;;;;;4999923;28;20054;-54
2022/03/03 07:47:02;;;;;;;18.17;11.50;;;2.00;58.50;;;;;;4999125;28;20042;-51
2022/03/03 07:49:30;;;;;;;18.73;12.18;;;2.00;58.60;;;;;;4992842;28;20042;-50
2022/03/03 07:51:58;;;;;;;22.55;11.57;;;2.10;58.70;;;;;;5002210;28;20076;-50
2022/03/03 07:54:24;;;;;;;15.68;10.43;;;2.10;59.40;;;;;;4993682;28;20053;-50
2022/03/03 07:56:55;;;;;;;15.82;10.75;;;2.10;58.70;;;;;;5003876;28;20041;-51
2022/03/03 07:59:27;;;;;;;19.38;11.57;;;2.20;58.90;;;;;;5005568;28;20046;-54
2022/03/03 08:01:56;;;;;;;18.30;10.85;;;2.30;59.10;;;;;;4992997;28;20465;-51
2022/03/03 08:04:28;;;;;;;16.88;11.60;;;2.30;59.00;;;;;;4984935;28;20054;-50
2022/03/03 08:07:07;;;;;;;15.98;10.95;;;2.40;59.30;;;;;;4997289;28;20049;-50
2022/03/03 08:09:36;;;;;;;15.43;11.20;;;2.50;59.70;;;;;;4994788;28;20051;-54
2022/03/03 08:12:05;;;;;;;17.83;11.85;;;2.50;59.30;;;;;;4991180;28;20035;-53
2022/03/03 08:14:32;;;;;;;19.88;12.40;;;2.60;59.50;;;;;;4981878;28;20100;-54
2022/03/03 08:16:59;;;;;;;27.10;16.83;;;2.70;59.70;;;;;;5005709;28;20046;-54
2022/03/03 08:19:26;;;;;;;27.00;16.23;;;2.70;59.60;;;;;;5012097;28;20046;-54
2022/03/03 08:21:53;;;;;;;25.52;14.10;;;2.80;59.70;;;;;;4998818;28;20544;-54
2022/03/03 08:24:20;;;;;;;23.67;14.73;;;2.90;59.70;;;;;;5003847;28;20108;-54
2022/03/03 08:26:46;;;;;;;21.55;13.00;;;3.00;59.70;;;;;;5011191;28;20054;-53
2022/03/03 08:29:13;;;;;;;23.80;14.13;;;3.10;59.70;;;;;;4998988;28;20513;-53
2022/03/03 08:31:48;;;;;;;21.10;12.25;;;3.20;59.70;;;;;;4975333;28;20042;-54
2022/03/03 08:34:22;;;;;;;20.10;12.55;;;3.30;59.90;;;;;;5000649;28;20052;-53
2022/03/03 08:36:56;;;;;;;17.38;11.93;;;3.40;59.70;;;;;;5010815;28;20104;-54
2022/03/03 08:39:27;;;;;;;29.35;15.70;;;3.50;59.60;;;;;;4992179;28;20447;-51
2022/03/03 08:42:00;;;;;;;22.10;13.43;;;3.60;59.20;;;;;;4996093;28;20046;-53
2022/03/03 08:44:52;;;;;;;23.83;14.38;;;3.70;59.30;;;;;;5000777;28;20125;-52
2022/03/03 08:47:21;;;;;;;23.25;14.30;;;3.90;59.10;;;;;;4988435;28;20046;-54
2022/03/03 08:49:58;;;;;;;23.80;14.25;;;4.00;58.80;;;;;;4990596;28;20037;-51
2022/03/03 08:52:45;;;;;;;17.35;11.57;;;4.10;58.70;;;;;;4995771;28;20102;-53
2022/03/03 08:55:13;;;;;;;17.00;11.90;;;4.30;58.30;;;;;;4991761;28;20039;-53
2022/03/03 08:57:40;;;;;;;18.13;11.48;;;4.40;58.10;;;;;;4992259;28;20049;-52
2022/03/03 09:00:12;;;;;;;16.92;10.75;;;4.40;57.90;;;;;;4970136;28;20046;-54
2022/03/03 09:02:43;;;;;;;18.47;11.97;;;4.50;57.80;;;;;;5002046;28;20046;-54
2022/03/03 09:05:11;;;;;;;18.98;11.90;;;4.60;57.50;;;;;;5005514;28;20280;-54
2022/03/03 09:07:38;;;;;;;16.45;11.30;;;4.80;57.40;;;;;;5007028;28;20042;-54
2022/03/03 09:10:06;;;;;;;15.38;10.43;;;4.80;57.30;;;;;;4987039;28;20105;-53
2022/03/03 09:12:33;;;;;;;13.45;10.23;;;5.00;57.10;;;;;;4999526;28;20042;-54
2022/03/03 09:15:00;;;;;;;15.40;10.65;;;5.00;56.80;;;;;;4990735;28;20042;-53
2022/03/03 09:17:32;;;;;;;11.27;7.93;;;5.10;56.80;;;;;;4990734;28;20052;-51
2022/03/03 09:20:00;;;;;;;14.57;10.93;;;5.20;56.60;;;;;;4997545;28;20113;-54
2022/03/03 09:22:28;;;;;;;16.63;10.73;;;5.30;56.30;;;;;;4989376;28;20066;-53
2022/03/03 09:24:55;;;;;;;20.73;11.30;;;5.40;56.10;;;;;;4986461;28;20124;-53
2022/03/03 09:27:23;;;;;;;17.25;10.85;;;5.40;56.00;;;;;;5004669;28;20034;-54
2022/03/03 09:29:50;;;;;;;17.73;11.05;;;5.50;55.80;;;;;;5000515;28;20117;-55
2022/03/03 09:32:17;;;;;;;15.80;11.20;;;5.50;55.60;;;;;;4984663;28;20077;-54
2022/03/03 09:34:47;;;;;;;17.95;11.80;;;5.60;55.40;;;;;;4989629;28;20043;-54
2022/03/03 09:37:14;;;;;;;16.00;10.65;;;5.70;55.40;;;;;;4987609;28;20038;-54
2022/03/03 09:39:43;;;;;;;15.40;11.63;;;5.80;55.30;;;;;;4992066;28;20054;-53
2022/03/03 09:42:10;;;;;;;14.88;10.02;;;5.80;55.30;;;;;;5001133;28;20088;-54
2022/03/03 09:44:37;;;;;;;17.95;10.77;;;5.90;55.10;;;;;;4996169;28;20041;-51
2022/03/03 09:47:04;;;;;;;17.73;11.13;;;6.00;55.10;;;;;;5000088;28;20053;-53
2022/03/03 09:49:31;;;;;;;13.98;10.18;;;6.10;55.00;;;;;;5001577;28;20064;-53
2022/03/03 09:51:58;;;;;;;16.65;11.23;;;6.20;54.80;;;;;;5006576;23;20033;-75
2022/03/03 09:54:25;;;;;;;15.00;11.40;;;6.30;54.80;;;;;;4995768;28;20038;-75
2022/03/03 09:56:51;;;;;;;15.20;10.38;;;6.30;54.60;;;;;;4983416;28;20065;-76
2022/03/03 09:59:18;;;;;;;16.02;10.70;;;6.40;54.50;;;;;;4990561;28;20054;-76
2022/03/03 10:01:46;;;;;;;17.42;10.35;;;6.50;54.80;;;;;;4997154;28;20646;-76
2022/03/03 10:04:19;;;;;;;15.18;10.50;;;6.60;54.10;;;;;;4999608;28;20038;-79
2022/03/03 10:06:47;;;;;;;17.42;10.98;;;6.60;53.90;;;;;;5000514;28;20060;-75
2022/03/03 10:09:16;;;;;;;15.30;10.60;;;6.70;53.80;;;;;;4999585;28;20034;-75
2022/03/03 10:11:49;;;;;;;17.65;11.00;;;6.80;53.70;;;;;;4992837;28;20122;-75
2022/03/03 10:14:28;;;;;;;16.02;10.68;;;6.90;53.50;;;;;;4987434;28;20046;-75
2022/03/03 10:16:55;;;;;;;16.92;11.60;;;7.00;53.60;;;;;;4992077;28;20046;-76
2022/03/03 10:19:57;;;;;;;14.70;10.63;;;7.00;53.40;;;;;;4988063;28;20576;-75
2022/03/03 10:22:39;;;;;;;15.63;9.90;;;7.10;53.30;;;;;;4996069;28;20119;-75
2022/03/03 10:25:08;;;;;;;18.73;10.57;;;7.20;53.10;;;;;;4990169;28;20122;-75
2022/03/03 10:27:35;;;;;;;13.93;11.02;;;7.30;53.00;;;;;;4988063;28;20042;-75
2022/03/03 10:30:05;;;;;;;15.25;10.70;;;7.30;52.60;;;;;;4988164;28;20043;-75
2022/03/03 10:32:35;;;;;;;15.30;10.40;;;7.40;52.40;;;;;;4979542;28;20085;-75
2022/03/03 10:35:16;;;;;;;13.85;9.77;;;7.50;52.50;;;;;;4987641;28;20046;-75
2022/03/03 10:37:45;;;;;;;14.63;10.70;;;7.50;52.10;;;;;;4980855;28;20076;-75
2022/03/03 10:40:16;;;;;;;14.55;10.40;;;7.60;52.30;;;;;;4996068;28;20043;-75
2022/03/03 10:42:47;;;;;;;15.15;10.90;;;7.60;52.10;;;;;;4997865;28;20474;-75
2022/03/03 10:45:19;;;;;;;15.98;10.73;;;7.80;52.10;;;;;;4974156;28;20065;-75
2022/03/03 10:47:58;;;;;;;14.05;10.07;;;7.80;51.90;;;;;;4987179;28;20054;-75
2022/03/03 10:50:25;;;;;;;14.50;9.73;;;7.90;51.60;;;;;;4970799;28;21115;-76
2022/03/03 10:52:52;;;;;;;14.60;10.48;;;8.10;51.90;;;;;;4997450;28;20042;-76
2022/03/03 10:55:20;;;;;;;15.75;10.63;;;8.00;51.70;;;;;;4988142;28;20046;-75
2022/03/03 10:57:57;;;;;;;17.33;11.35;;;8.00;51.70;;;;;;4988616;28;20043;-75
2022/03/03 11:00:27;;;;;;;16.77;10.07;;;8.10;51.40;;;;;;4987456;28;20043;-76
2022/03/03 11:02:59;;;;;;;16.45;10.60;;;8.20;51.40;;;;;;4996036;28;20070;-75
2022/03/03 11:05:28;;;;;;;12.68;10.32;;;8.20;51.20;;;;;;4987614;28;20105;-75
2022/03/03 11:07:56;;;;;;;15.45;11.13;;;8.30;51.40;;;;;;4984330;28;20054;-76
2022/03/03 11:10:27;;;;;;;16.25;11.43;;;8.40;51.40;;;;;;4981483;28;20085;-76
2022/03/03 11:12:54;;;;;;;14.40;9.90;;;8.40;51.10;;;;;;4986889;28;20046;-76
2022/03/03 11:15:24;;;;;;;13.10;10.13;;;8.50;50.70;;;;;;4981316;28;20042;-75
2022/03/03 11:17:52;;;;;;;12.43;10.20;;;8.60;50.30;;;;;;4984827;28;20043;-76
2022/03/03 11:20:21;;;;;;;15.90;10.93;;;8.70;50.00;;;;;;4995288;28;20050;-76
2022/03/03 11:22:53;;;;;;;13.43;10.18;;;8.70;49.60;;;;;;4986241;28;20046;-76
2022/03/03 11:25:31;;;;;;;14.13;10.80;;;8.80;49.30;;;;;;4985771;28;20042;-75
2022/03/03 11:28:18;;;;;;;13.13;10.40;;;8.90;49.10;;;;;;4966561;28;20058;-76
2022/03/03 11:30:46;;;;;;;13.43;10.63;;;9.00;48.60;;;;;;4987506;28;20050;-75
2022/03/03 11:33:27;;;;;;;14.15;10.55;;;9.10;49.10;;;;;;4988660;28;20042;-76
2022/03/03 11:35:58;;;;;;;17.52;11.68;;;9.20;48.60;;;;;;4973449;28;20046;-75
2022/03/03 11:38:42;;;;;;;17.45;11.02;;;9.20;48.80;;;;;;4986155;28;20053;-75
2022/03/03 11:41:09;;;;;;;12.30;9.65;;;9.30;48.70;;;;;;4979448;28;20042;-75
2022/03/03 11:43:58;;;;;;;15.73;11.27;;;9.40;48.50;;;;;;4985637;28;20054;-76
2022/03/03 11:46:50;;;;;;;14.93;10.95;;;9.50;47.60;;;;;;4968461;28;20218;-76
2022/03/03 11:49:25;;;;;;;16.17;10.30;;;9.60;47.50;;;;;;4988148;28;20109;-75
2022/03/03 11:51:55;;;;;;;15.45;11.13;;;9.70;47.70;;;;;;4987458;28;20689;-75
2022/03/03 11:54:27;;;;;;;16.40;11.60;;;9.70;47.50;;;;;;4985981;28;20045;-76
2022/03/03 11:57:03;;;;;;;15.82;11.77;;;9.80;47.50;;;;;;4967476;28;20042;-76
2022/03/03 11:59:39;;;;;;;14.45;11.10;;;9.90;47.50;;;;;;4991762;28;20081;-76
2022/03/03 12:02:07;;;;;;;14.25;10.52;;;9.90;46.60;;;;;;4990106;28;20057;-76
2022/03/03 12:04:37;;;;;;;13.50;10.60;;;9.90;46.70;;;;;;4971198;28;20046;-75
2022/03/03 12:07:04;;;;;;;13.73;10.32;;;10.00;46.60;;;;;;4981743;28;20038;-76
2022/03/03 12:09:38;;;;;;;12.52;10.27;;;10.10;46.30;;;;;;4989716;28;20050;-76
2022/03/03 12:12:13;;;;;;;14.80;10.60;;;10.20;45.70;;;;;;4990240;28;20041;-76
2022/03/03 12:14:51;;;;;;;13.75;9.88;;;10.30;45.50;;;;;;4989410;28;20042;-76
2022/03/03 12:17:58;;;;;;;15.48;11.55;;;10.30;44.90;;;;;;4989415;28;20042;-76
2022/03/03 12:20:27;;;;;;;19.52;13.10;;;10.40;45.10;;;;;;4991040;28;20046;-76
2022/03/03 12:23:35;;;;;;;18.95;12.75;;;10.50;45.50;;;;;;4989599;28;20050;-76
2022/03/03 12:26:04;;;;;;;16.08;11.25;;;10.60;45.00;;;;;;4970035;28;20141;-76
2022/03/03 12:28:47;;;;;;;20.55;12.48;;;10.60;45.30;;;;;;4977711;28;20046;-76
2022/03/03 12:31:24;;;;;;;15.27;11.00;;;10.70;44.80;;;;;;4973926;28;20821;-76
2022/03/03 12:34:08;;;;;;;13.70;10.20;;;10.70;44.60;;;;;;5006483;28;20062;-76
2022/03/03 12:36:38;;;;;;;16.02;10.57;;;10.80;44.30;;;;;;4987141;28;20046;-76
2022/03/03 12:39:06;;;;;;;12.73;9.80;;;10.80;44.10;;;;;;4977430;28;20042;-76
2022/03/03 12:41:35;;;;;;;13.60;9.82;;;10.90;44.30;;;;;;5004017;28;20057;-76
2022/03/03 12:44:12;;;;;;;13.43;10.02;;;11.00;44.00;;;;;;4991195;28;20085;-76
2022/03/03 12:46:41;;;;;;;13.15;10.93;;;11.00;43.60;;;;;;4988754;28;20050;-76
2022/03/03 12:49:10;;;;;;;13.27;10.32;;;11.10;43.70;;;;;;4991198;28;20049;-76
2022/03/03 12:51:44;;;;;;;12.77;10.57;;;11.20;43.80;;;;;;4991182;28;20049;-76